createdAt,value
2017-08-05T00:01:22.606Z,24.72
2017-08-05T00:03:50.049Z,24.72
2017-08-05T00:06:17.492Z,24.69
2017-08-05T00:08:44.953Z,24.63
2017-08-05T00:11:12.415Z,24.64
2017-08-05T00:13:39.879Z,24.72
2017-08-05T00:16:07.329Z,24.56
2017-08-05T00:18:34.796Z,24.70
2017-08-05T00:21:02.264Z,24.66
2017-08-05T00:23:29.708Z,24.54
2017-08-05T00:25:57.181Z,24.39
2017-08-05T00:28:24.629Z,24.36
2017-08-05T00:30:52.100Z,24.41
2017-08-05T00:33:19.561Z,24.19
2017-08-05T00:35:47.045Z,23.98
2017-08-05T00:38:14.494Z,23.98
2017-08-05T00:40:41.961Z,24.03
2017-08-05T00:43:09.408Z,24.24
2017-08-05T00:45:36.887Z,24.06
2017-08-05T00:48:04.708Z,24.07
2017-08-05T00:50:32.152Z,24.08
2017-08-05T00:52:59.605Z,24.21
2017-08-05T00:55:27.081Z,24.14
2017-08-05T00:57:54.696Z,24.18
2017-08-05T01:00:22.140Z,24.20
2017-08-05T01:02:49.581Z,24.21
2017-08-05T01:05:17.052Z,24.11
2017-08-05T01:07:44.496Z,24.13
2017-08-05T01:10:11.945Z,24.14
2017-08-05T01:12:39.417Z,24.07
2017-08-05T01:15:06.871Z,23.97
2017-08-05T01:17:34.336Z,23.86
2017-08-05T01:20:01.792Z,23.80
2017-08-05T01:22:29.281Z,23.76
2017-08-05T01:24:56.730Z,23.72
2017-08-05T01:27:24.213Z,23.54
2017-08-05T01:29:51.665Z,23.62
2017-08-05T01:32:19.137Z,23.49
2017-08-05T01:34:46.600Z,23.45
2017-08-05T01:37:14.059Z,23.24
2017-08-05T01:39:41.521Z,23.14
2017-08-05T01:42:08.994Z,23.19
2017-08-05T01:44:36.440Z,23.15
2017-08-05T01:47:03.921Z,23.24
2017-08-05T01:49:31.359Z,23.23
2017-08-05T01:51:58.825Z,23.09
2017-08-05T01:54:26.261Z,23.10
2017-08-05T01:56:53.741Z,23.10
2017-08-05T01:59:21.358Z,23.13
2017-08-05T02:01:48.814Z,23.20
2017-08-05T02:04:16.277Z,23.24
2017-08-05T02:06:43.728Z,23.15
2017-08-05T02:09:11.183Z,23.21
2017-08-05T02:11:38.653Z,23.13
2017-08-05T02:14:06.103Z,23.13
2017-08-05T02:16:33.543Z,23.21
2017-08-05T02:19:01.011Z,23.13
2017-08-05T02:21:28.481Z,23.13
2017-08-05T02:23:55.945Z,23.14
2017-08-05T02:26:23.418Z,23.09
2017-08-05T02:28:50.879Z,23.03
2017-08-05T02:31:18.533Z,23.02
2017-08-05T02:33:45.989Z,22.97
2017-08-05T02:36:13.437Z,22.92
2017-08-05T02:38:40.913Z,22.93
2017-08-05T02:41:08.349Z,22.86
2017-08-05T02:43:35.793Z,22.90
2017-08-05T02:46:03.276Z,22.92
2017-08-05T02:48:30.764Z,22.92
2017-08-05T02:50:58.218Z,22.91
2017-08-05T02:53:25.659Z,22.94
2017-08-05T02:55:53.541Z,22.88
2017-08-05T02:58:20.985Z,22.86
2017-08-05T03:00:48.426Z,22.93
2017-08-05T03:03:15.902Z,22.93
2017-08-05T03:05:43.350Z,22.94
2017-08-05T03:08:10.816Z,22.96
2017-08-05T03:10:38.253Z,22.85
2017-08-05T03:13:05.722Z,22.86
2017-08-05T03:15:33.189Z,22.80
2017-08-05T03:18:00.937Z,22.86
2017-08-05T03:20:28.386Z,22.80
2017-08-05T03:22:55.832Z,22.79
2017-08-05T03:25:23.306Z,22.76
2017-08-05T03:27:50.745Z,22.78
2017-08-05T03:30:18.213Z,22.77
2017-08-05T03:32:45.660Z,22.76
2017-08-05T03:35:13.110Z,22.75
2017-08-05T03:37:40.978Z,22.70
2017-08-05T03:40:08.419Z,22.63
2017-08-05T03:42:35.857Z,22.72
2017-08-05T03:45:03.324Z,22.69
2017-08-05T03:47:30.773Z,22.65
2017-08-05T03:49:58.233Z,22.65
2017-08-05T03:52:25.722Z,22.68
2017-08-05T03:54:53.169Z,22.67
2017-08-05T03:57:20.621Z,22.64
2017-08-05T03:59:48.095Z,22.72
2017-08-05T04:02:15.544Z,22.75
2017-08-05T04:04:43.015Z,22.69
2017-08-05T04:07:10.473Z,22.69
2017-08-05T04:09:37.926Z,22.69
2017-08-05T04:12:05.393Z,22.82
2017-08-05T04:14:32.970Z,22.83
2017-08-05T04:17:00.417Z,22.84
2017-08-05T04:19:27.873Z,22.88
2017-08-05T04:21:55.340Z,22.91
2017-08-05T04:24:22.792Z,22.88
2017-08-05T04:26:50.269Z,22.90
2017-08-05T04:29:17.936Z,22.88
2017-08-05T04:31:45.382Z,22.84
2017-08-05T04:34:12.833Z,22.91
2017-08-05T04:36:40.305Z,22.89
2017-08-05T04:39:07.764Z,22.93
2017-08-05T04:41:35.208Z,22.93
2017-08-05T04:44:02.686Z,22.84
2017-08-05T04:46:30.136Z,22.72
2017-08-05T04:48:57.577Z,22.78
2017-08-05T04:51:25.038Z,22.76
2017-08-05T04:53:52.490Z,22.67
2017-08-05T04:56:19.953Z,22.60
2017-08-05T04:58:47.405Z,22.69
2017-08-05T05:01:14.869Z,22.80
2017-08-05T05:03:42.334Z,22.67
2017-08-05T05:06:09.777Z,22.57
2017-08-05T05:08:37.251Z,22.95
2017-08-05T05:11:04.708Z,23.10
2017-08-05T05:13:32.178Z,23.04
2017-08-05T05:15:59.630Z,23.00
2017-08-05T05:18:27.098Z,23.02
2017-08-05T05:20:54.548Z,23.05
2017-08-05T05:23:22.128Z,23.21
2017-08-05T05:25:49.581Z,23.56
2017-08-05T05:28:17.027Z,23.91
2017-08-05T05:30:44.499Z,23.67
2017-08-05T05:33:11.973Z,23.75
2017-08-05T05:35:39.458Z,23.86
2017-08-05T05:38:06.928Z,24.04
2017-08-05T05:40:34.369Z,23.98
2017-08-05T05:43:01.845Z,23.88
2017-08-05T05:45:29.508Z,24.01
2017-08-05T05:47:56.956Z,24.09
2017-08-05T05:50:24.403Z,24.13
2017-08-05T05:52:51.866Z,24.35
2017-08-05T05:55:19.329Z,25.03
2017-08-05T05:57:46.781Z,24.70
2017-08-05T06:00:14.241Z,24.53
2017-08-05T06:02:41.688Z,24.41
2017-08-05T06:05:09.157Z,24.52
2017-08-05T06:07:36.597Z,24.31
2017-08-05T06:10:04.060Z,24.34
2017-08-05T06:12:31.505Z,24.50
2017-08-05T06:14:59.076Z,24.79
2017-08-05T06:17:26.522Z,24.87
2017-08-05T06:19:53.968Z,24.90
2017-08-05T06:22:21.441Z,24.86
2017-08-05T06:24:48.900Z,24.70
2017-08-05T06:27:16.378Z,24.65
2017-08-05T06:29:43.860Z,24.73
2017-08-05T06:32:11.322Z,24.65
2017-08-05T06:34:38.774Z,24.64
2017-08-05T06:37:06.257Z,24.78
2017-08-05T06:39:33.705Z,25.03
2017-08-05T06:42:01.153Z,25.09
2017-08-05T06:44:28.859Z,25.11
2017-08-05T06:46:56.327Z,25.13
2017-08-05T06:49:23.786Z,25.26
2017-08-05T06:51:51.538Z,25.22
2017-08-05T06:54:18.985Z,25.32
2017-08-05T06:56:46.437Z,25.44
2017-08-05T06:59:13.921Z,25.30
2017-08-05T07:01:41.376Z,25.21
2017-08-05T07:04:08.819Z,25.38
2017-08-05T07:06:36.302Z,25.36
2017-08-05T07:09:03.770Z,25.49
2017-08-05T07:11:31.217Z,25.54
2017-08-05T07:13:58.685Z,25.68
2017-08-05T07:16:26.129Z,25.53
2017-08-05T07:18:53.598Z,25.97
2017-08-05T07:21:21.423Z,25.84
2017-08-05T07:23:48.896Z,25.77
2017-08-05T07:26:16.366Z,25.64
2017-08-05T07:28:44.093Z,25.63
2017-08-05T07:31:11.538Z,25.60
2017-08-05T07:33:38.980Z,25.32
2017-08-05T07:36:06.460Z,25.36
2017-08-05T07:38:33.956Z,25.64
2017-08-05T07:41:01.404Z,25.53
2017-08-05T07:43:28.881Z,25.55
2017-08-05T07:45:56.594Z,25.91
2017-08-05T07:48:24.049Z,26.00
2017-08-05T07:50:51.501Z,25.89
2017-08-05T07:53:18.989Z,26.26
2017-08-05T07:55:46.438Z,26.40
2017-08-05T07:58:13.884Z,26.32
2017-08-05T08:00:41.367Z,26.56
2017-08-05T08:03:08.817Z,26.50
2017-08-05T08:05:36.261Z,26.53
2017-08-05T08:08:03.830Z,26.28
2017-08-05T08:10:31.277Z,26.45
2017-08-05T08:12:58.726Z,26.36
2017-08-05T08:15:26.192Z,26.85
2017-08-05T08:17:53.640Z,26.72
2017-08-05T08:20:21.112Z,26.82
2017-08-05T08:22:48.556Z,26.95
2017-08-05T08:25:16.036Z,27.06
2017-08-05T08:27:43.491Z,27.78
2017-08-05T08:30:11.185Z,27.93
2017-08-05T08:32:38.634Z,28.03
2017-08-05T08:35:06.083Z,27.71
2017-08-05T08:37:33.546Z,28.28
2017-08-05T08:40:01.041Z,28.24
2017-08-05T08:42:28.486Z,28.39
2017-08-05T08:44:55.925Z,28.15
2017-08-05T08:47:23.403Z,28.39
2017-08-05T08:49:50.849Z,28.49
2017-08-05T08:52:18.319Z,28.48
2017-08-05T08:54:45.789Z,28.83
2017-08-05T08:57:13.237Z,28.87
2017-08-05T08:59:40.711Z,28.85
2017-08-05T09:02:08.185Z,28.71
2017-08-05T09:04:35.639Z,29.01
2017-08-05T09:07:03.111Z,29.66
2017-08-05T09:09:30.580Z,29.24
2017-08-05T09:11:58.049Z,29.21
2017-08-05T09:14:25.498Z,28.96
2017-08-05T09:16:52.943Z,28.79
2017-08-05T09:19:20.421Z,28.82
2017-08-05T09:21:47.875Z,28.28
2017-08-05T09:24:15.344Z,28.40
2017-08-05T09:26:42.797Z,28.43
2017-08-05T09:29:10.270Z,28.23
2017-08-05T09:31:37.714Z,27.80
2017-08-05T09:34:05.164Z,28.26
2017-08-05T09:36:32.636Z,28.43
2017-08-05T09:39:00.084Z,28.32
2017-08-05T09:41:27.534Z,29.07
2017-08-05T09:43:55.001Z,29.53
2017-08-05T09:46:22.443Z,29.64
2017-08-05T09:48:49.909Z,29.54
2017-08-05T09:51:17.352Z,29.38
2017-08-05T09:53:44.821Z,29.56
2017-08-05T09:56:12.276Z,30.05
2017-08-05T09:58:40.026Z,29.87
2017-08-05T10:01:07.489Z,29.90
2017-08-05T10:03:34.945Z,29.69
2017-08-05T10:06:02.418Z,30.46
2017-08-05T10:08:29.875Z,30.51
2017-08-05T10:10:57.635Z,31.33
2017-08-05T10:13:25.113Z,31.71
2017-08-05T10:15:52.589Z,31.25
2017-08-05T10:18:20.037Z,30.56
2017-08-05T10:20:47.492Z,30.69
2017-08-05T10:23:14.983Z,29.44
2017-08-05T10:25:42.434Z,29.82
2017-08-05T10:28:09.885Z,30.34
2017-08-05T10:30:37.644Z,30.90
2017-08-05T10:33:05.104Z,30.07
2017-08-05T10:35:32.559Z,30.62
2017-08-05T10:38:00.309Z,30.67
2017-08-05T10:40:27.750Z,30.10
2017-08-05T10:42:55.192Z,30.38
2017-08-05T10:45:22.986Z,30.54
2017-08-05T10:47:50.435Z,30.96
2017-08-05T10:50:17.895Z,31.06
2017-08-05T10:52:45.709Z,31.47
2017-08-05T10:55:13.180Z,30.55
2017-08-05T10:57:40.625Z,31.06
2017-08-05T11:00:08.116Z,31.27
2017-08-05T11:02:35.562Z,30.40
2017-08-05T11:05:03.014Z,31.30
2017-08-05T11:07:30.763Z,30.33
2017-08-05T11:09:58.212Z,29.85
2017-08-05T11:12:25.808Z,30.81
2017-08-05T11:14:53.276Z,30.35
2017-08-05T11:17:20.892Z,31.07
2017-08-05T11:19:48.388Z,31.45
2017-08-05T11:22:15.839Z,31.45
2017-08-05T11:24:43.287Z,31.28
2017-08-05T11:27:10.862Z,31.62
2017-08-05T11:29:38.336Z,30.76
2017-08-05T11:32:06.265Z,31.72
2017-08-05T11:34:33.720Z,31.85
2017-08-05T11:37:01.177Z,31.98
2017-08-05T11:39:28.976Z,31.85
2017-08-05T11:41:56.432Z,32.42
2017-08-05T11:44:23.922Z,31.39
2017-08-05T11:46:52.356Z,32.28
2017-08-05T11:49:19.815Z,33.48
2017-08-05T11:51:47.486Z,32.67
2017-08-05T11:54:15.432Z,32.85
2017-08-05T11:56:42.876Z,35.03
2017-08-05T11:59:10.482Z,33.83
2017-08-05T12:01:37.969Z,35.60
2017-08-05T12:04:05.422Z,34.84
2017-08-05T12:06:33.184Z,35.44
2017-08-05T12:09:00.647Z,34.47
2017-08-05T12:11:28.089Z,35.02
2017-08-05T12:13:55.866Z,34.55
2017-08-05T12:16:23.318Z,33.35
2017-08-05T12:18:51.087Z,34.85
2017-08-05T12:21:18.531Z,35.21
2017-08-05T12:23:46.036Z,34.13
2017-08-05T12:26:13.533Z,33.79
2017-08-05T12:28:41.186Z,33.67
2017-08-05T12:31:08.754Z,36.12
2017-08-05T12:33:36.216Z,35.58
2017-08-05T12:36:03.730Z,36.03
2017-08-05T12:38:31.370Z,34.59
2017-08-05T12:40:58.814Z,33.13
2017-08-05T12:43:26.264Z,33.69
2017-08-05T12:45:53.761Z,34.45
2017-08-05T12:48:21.198Z,37.22
2017-08-05T12:50:48.654Z,35.48
2017-08-05T12:53:16.397Z,33.45
2017-08-05T12:55:43.862Z,35.93
2017-08-05T12:58:11.667Z,36.55
2017-08-05T13:00:39.195Z,37.76
2017-08-05T13:03:06.902Z,37.45
2017-08-05T13:05:34.342Z,38.38
2017-08-05T13:08:01.789Z,38.49
2017-08-05T13:10:29.579Z,37.14
2017-08-05T13:12:57.310Z,37.70
2017-08-05T13:15:24.892Z,38.53
2017-08-05T13:17:52.593Z,35.51
2017-08-05T13:20:20.051Z,38.04
2017-08-05T13:22:47.512Z,35.78
2017-08-05T13:25:15.269Z,36.64
2017-08-05T13:27:42.711Z,37.14
2017-08-05T13:30:10.492Z,39.22
2017-08-05T13:32:38.068Z,38.13
2017-08-05T13:35:05.518Z,38.37
2017-08-05T13:37:33.192Z,38.66
2017-08-05T13:40:00.639Z,39.07
2017-08-05T13:42:28.399Z,37.77
2017-08-05T13:44:55.870Z,38.59
2017-08-05T13:47:23.677Z,38.25
2017-08-05T13:49:51.125Z,37.79
2017-08-05T13:52:18.866Z,35.69
2017-08-05T13:54:46.318Z,37.02
2017-08-05T13:57:13.763Z,36.48
2017-08-05T13:59:42.172Z,36.20
2017-08-05T14:02:09.627Z,38.52
2017-08-05T14:04:37.069Z,38.80
2017-08-05T14:07:04.552Z,35.51
2017-08-05T14:09:32.041Z,36.08
2017-08-05T14:11:59.477Z,35.65
2017-08-05T14:14:26.926Z,37.06
2017-08-05T14:16:54.435Z,37.01
2017-08-05T14:19:21.891Z,38.23
2017-08-05T14:21:49.359Z,39.37
2017-08-05T14:24:16.838Z,39.18
2017-08-05T14:26:44.285Z,39.21
2017-08-05T14:29:11.741Z,38.04
2017-08-05T14:31:39.225Z,39.14
2017-08-05T14:34:06.677Z,36.52
2017-08-05T14:36:34.142Z,38.28
2017-08-05T14:39:01.615Z,37.89
2017-08-05T14:41:29.121Z,39.99
2017-08-05T14:43:56.569Z,40.35
2017-08-05T14:46:24.017Z,39.92
2017-08-05T14:48:51.501Z,39.46
2017-08-05T14:51:18.949Z,38.82
2017-08-05T14:53:48.592Z,37.34
2017-08-05T14:56:16.150Z,37.58
2017-08-05T14:58:43.608Z,35.78
2017-08-05T15:01:11.110Z,36.00
2017-08-05T15:03:38.556Z,35.91
2017-08-05T15:06:05.999Z,37.74
2017-08-05T15:08:33.500Z,36.75
2017-08-05T15:11:00.942Z,35.80
2017-08-05T15:13:28.398Z,34.35
2017-08-05T15:15:55.899Z,34.42
2017-08-05T15:18:23.353Z,34.88
2017-08-05T15:20:50.792Z,34.85
2017-08-05T15:23:18.269Z,36.29
2017-08-05T15:25:45.716Z,35.02
2017-08-05T15:28:13.194Z,36.58
2017-08-05T15:30:40.648Z,36.25
2017-08-05T15:33:08.098Z,35.53
2017-08-05T15:35:35.578Z,36.53
2017-08-05T15:38:03.037Z,36.16
2017-08-05T15:40:30.802Z,36.16
2017-08-05T15:42:58.296Z,34.11
2017-08-05T15:45:25.757Z,35.14
2017-08-05T15:47:53.216Z,37.27
2017-08-05T15:50:20.694Z,35.49
2017-08-05T15:52:48.181Z,37.48
2017-08-05T15:55:15.680Z,34.68
2017-08-05T15:57:43.151Z,36.12
2017-08-05T16:00:10.630Z,33.60
2017-08-05T16:02:38.109Z,34.60
2017-08-05T16:05:05.550Z,36.35
2017-08-05T16:07:32.998Z,36.51
2017-08-05T16:10:00.623Z,38.37
2017-08-05T16:12:28.074Z,39.41
2017-08-05T16:14:55.542Z,38.96
2017-08-05T16:17:23.010Z,35.76
2017-08-05T16:19:50.519Z,35.52
2017-08-05T16:22:17.988Z,33.96
2017-08-05T16:24:45.433Z,35.35
2017-08-05T16:27:13.498Z,35.75
2017-08-05T16:29:40.978Z,35.20
2017-08-05T16:32:08.743Z,35.71
2017-08-05T16:34:36.216Z,35.44
2017-08-05T16:37:03.662Z,34.97
2017-08-05T16:39:31.146Z,35.05
2017-08-05T16:41:58.597Z,36.07
2017-08-05T16:44:26.040Z,37.81
2017-08-05T16:46:53.508Z,37.41
2017-08-05T16:49:20.949Z,35.96
2017-08-05T16:51:48.441Z,36.90
2017-08-05T16:54:15.894Z,35.31
2017-08-05T16:56:43.337Z,34.87
2017-08-05T16:59:10.823Z,33.64
2017-08-05T17:01:38.269Z,33.36
2017-08-05T17:04:05.714Z,32.69
2017-08-05T17:06:33.196Z,32.50
2017-08-05T17:09:00.681Z,31.61
2017-08-05T17:11:28.189Z,31.79
2017-08-05T17:13:55.640Z,31.72
2017-08-05T17:16:23.114Z,31.24
2017-08-05T17:18:50.585Z,31.26
2017-08-05T17:21:18.035Z,31.35
2017-08-05T17:23:45.518Z,31.21
2017-08-05T17:26:12.979Z,30.79
2017-08-05T17:28:40.435Z,30.83
2017-08-05T17:31:07.977Z,30.52
2017-08-05T17:33:35.425Z,30.46
2017-08-05T17:36:02.883Z,31.18
2017-08-05T17:38:30.380Z,31.12
2017-08-05T17:40:57.825Z,31.30
2017-08-05T17:43:25.281Z,31.62
2017-08-05T17:45:52.776Z,32.85
2017-08-05T17:48:20.565Z,33.38
2017-08-05T17:50:48.018Z,32.83
2017-08-05T17:53:15.528Z,33.26
2017-08-05T17:55:43.239Z,32.88
2017-08-05T17:58:10.702Z,32.49
2017-08-05T18:00:38.199Z,32.40
2017-08-05T18:03:05.641Z,32.26
2017-08-05T18:05:33.090Z,31.69
2017-08-05T18:08:00.581Z,31.56
2017-08-05T18:10:28.022Z,31.09
2017-08-05T18:12:55.518Z,30.72
2017-08-05T18:15:22.971Z,30.88
2017-08-05T18:17:50.417Z,30.48
2017-08-05T18:20:17.894Z,30.14
2017-08-05T18:22:45.349Z,30.28
2017-08-05T18:25:13.069Z,29.91
2017-08-05T18:27:40.574Z,29.83
2017-08-05T18:30:08.009Z,29.87
2017-08-05T18:32:35.460Z,29.62
2017-08-05T18:35:03.058Z,29.62
2017-08-05T18:37:30.515Z,29.69
2017-08-05T18:39:57.970Z,29.66
2017-08-05T18:42:25.446Z,29.48
2017-08-05T18:44:52.897Z,29.42
2017-08-05T18:47:20.495Z,29.36
2017-08-05T18:49:47.956Z,29.22
2017-08-05T18:52:15.435Z,29.11
2017-08-05T18:54:42.964Z,29.09
2017-08-05T18:57:10.411Z,28.91
2017-08-05T18:59:37.921Z,28.76
2017-08-05T19:02:05.629Z,28.73
2017-08-05T19:04:33.186Z,28.90
2017-08-05T19:07:00.703Z,28.90
2017-08-05T19:09:28.158Z,28.88
2017-08-05T19:11:55.648Z,28.84
2017-08-05T19:14:23.312Z,28.62
2017-08-05T19:16:50.765Z,28.67
2017-08-05T19:19:18.211Z,28.38
2017-08-05T19:21:45.710Z,28.23
2017-08-05T19:24:13.176Z,28.12
2017-08-05T19:26:40.639Z,28.19
2017-08-05T19:29:08.189Z,28.24
2017-08-05T19:31:35.636Z,27.91
2017-08-05T19:34:03.154Z,27.83
2017-08-05T19:36:30.678Z,27.81
2017-08-05T19:38:58.197Z,27.96
2017-08-05T19:41:25.716Z,28.08
2017-08-05T19:43:53.271Z,28.09
2017-08-05T19:46:20.762Z,28.04
2017-08-05T19:48:48.227Z,27.80
2017-08-05T19:51:15.665Z,27.68
2017-08-05T19:53:43.738Z,27.70
2017-08-05T19:56:11.204Z,27.73
2017-08-05T19:58:38.645Z,27.61
2017-08-05T20:01:06.134Z,27.40
2017-08-05T20:03:33.629Z,27.36
2017-08-05T20:06:01.373Z,27.40
2017-08-05T20:08:29.327Z,27.46
2017-08-05T20:10:56.889Z,27.41
2017-08-05T20:13:24.418Z,27.58
2017-08-05T20:15:51.873Z,27.49
2017-08-05T20:18:19.357Z,27.42
2017-08-05T20:20:46.810Z,27.39
2017-08-05T20:23:14.461Z,27.57
2017-08-05T20:25:41.980Z,27.40
2017-08-05T20:28:09.647Z,27.41
2017-08-05T20:30:37.114Z,27.69
2017-08-05T20:33:04.572Z,27.70
2017-08-05T20:35:32.437Z,27.62
2017-08-05T20:37:59.898Z,27.67
2017-08-05T20:40:27.709Z,27.56
2017-08-05T20:42:55.720Z,27.59
2017-08-05T20:45:23.245Z,27.53
2017-08-05T20:47:50.694Z,27.50
2017-08-05T20:50:19.084Z,27.47
2017-08-05T20:52:46.524Z,27.46
2017-08-05T20:55:13.985Z,27.34
2017-08-05T20:57:41.476Z,27.33
2017-08-05T21:00:08.930Z,27.26
2017-08-05T21:02:36.397Z,27.25
2017-08-05T21:05:03.843Z,27.29
2017-08-05T21:07:31.564Z,27.21
2017-08-05T21:09:59.004Z,27.07
2017-08-05T21:12:26.513Z,26.92
2017-08-05T21:14:53.990Z,26.83
2017-08-05T21:17:21.484Z,26.78
2017-08-05T21:19:48.937Z,26.77
2017-08-05T21:22:16.389Z,26.75
2017-08-05T21:24:44.079Z,26.64
2017-08-05T21:27:11.527Z,26.73
2017-08-05T21:29:38.976Z,26.41
2017-08-05T21:32:06.778Z,26.42
2017-08-05T21:34:34.261Z,26.41
2017-08-05T21:37:01.708Z,26.39
2017-08-05T21:39:29.449Z,26.42
2017-08-05T21:41:56.903Z,26.31
2017-08-05T21:44:24.369Z,26.48
2017-08-05T21:46:52.149Z,26.16
2017-08-05T21:49:19.604Z,26.17
2017-08-05T21:51:47.051Z,25.97
2017-08-05T21:54:14.532Z,25.94
2017-08-05T21:56:41.997Z,25.95
2017-08-05T21:59:09.745Z,25.99
2017-08-05T22:01:37.518Z,26.05
2017-08-05T22:04:05.246Z,26.18
2017-08-05T22:06:32.699Z,26.05
2017-08-05T22:09:00.291Z,25.98
2017-08-05T22:11:27.983Z,25.96
2017-08-05T22:13:55.435Z,26.11
2017-08-05T22:16:22.944Z,26.15
2017-08-05T22:18:50.410Z,25.99
2017-08-05T22:21:17.862Z,25.93
2017-08-05T22:23:45.341Z,25.79
2017-08-05T22:26:12.786Z,25.76
2017-08-05T22:28:40.253Z,25.69
2017-08-05T22:31:07.741Z,25.81
2017-08-05T22:33:35.217Z,25.78
2017-08-05T22:36:02.665Z,25.81
2017-08-05T22:38:30.134Z,25.94
2017-08-05T22:40:57.621Z,25.99
2017-08-05T22:43:25.074Z,25.95
2017-08-05T22:45:52.545Z,25.94
2017-08-05T22:48:20.014Z,25.75
2017-08-05T22:50:47.462Z,25.86
2017-08-05T22:53:15.098Z,25.93
2017-08-05T22:55:42.549Z,26.02
2017-08-05T22:58:10.002Z,25.93
2017-08-05T23:00:37.780Z,26.14
2017-08-05T23:03:05.226Z,26.09
2017-08-05T23:05:32.668Z,26.03
2017-08-05T23:08:00.151Z,25.99
2017-08-05T23:10:27.601Z,25.65
2017-08-05T23:12:55.054Z,24.57
2017-08-05T23:15:22.597Z,23.84
2017-08-05T23:17:50.040Z,23.49
2017-08-05T23:20:17.529Z,22.52
2017-08-05T23:22:45.007Z,21.72
2017-08-05T23:25:12.485Z,20.94
2017-08-05T23:27:39.930Z,20.61
2017-08-05T23:30:07.394Z,20.53
2017-08-05T23:32:34.865Z,20.51
2017-08-05T23:35:02.313Z,20.46
2017-08-05T23:37:29.786Z,20.40
2017-08-05T23:39:57.240Z,20.45
2017-08-05T23:42:24.710Z,20.47
2017-08-05T23:44:52.188Z,20.50
2017-08-05T23:47:19.632Z,20.47
2017-08-05T23:49:47.294Z,20.48
2017-08-05T23:52:14.736Z,20.32
2017-08-05T23:54:42.189Z,20.23
2017-08-05T23:57:09.658Z,20.17
2017-08-05T23:59:37.105Z,20.11
